sensor_id;sensor_type;location;lat;lon;timestamp;temperature;humidity
10538;DHT22;5317;49.048;8.468;2023-05-10T00:01:28;18.50;89.10
10538;DHT22;5317;49.048;8.468;2023-05-10T00:03:55;18.40;89.10
10538;DHT22;5317;49.048;8.468;2023-05-10T00:06:21;18.40;89.50
10538;DHT22;5317;49.048;8.468;2023-05-10T00:08:48;18.50;89.30
10538;DHT22;5317;49.048;8.468;2023-05-10T00:11:15;18.50;89.10
10538;DHT22;5317;49.048;8.468;2023-05-10T00:13:42;18.40;88.80
10538;DHT22;5317;49.048;8.468;2023-05-10T00:16:10;18.40;89.00
10538;DHT22;5317;49.048;8.468;2023-05-10T00:18:38;18.40;89.30
10538;DHT22;5317;49.048;8.468;2023-05-10T00:21:06;18.40;89.10
10538;DHT22;5317;49.048;8.468;2023-05-10T00:23:33;18.40;89.50
10538;DHT22;5317;49.048;8.468;2023-05-10T00:25:59;18.30;89.00
10538;DHT22;5317;49.048;8.468;2023-05-10T00:28:27;18.30;89.40
10538;DHT22;5317;49.048;8.468;2023-05-10T00:30:54;18.40;89.40
10538;DHT22;5317;49.048;8.468;2023-05-10T00:33:23;18.40;89.10
10538;DHT22;5317;49.048;8.468;2023-05-10T00:35:50;18.30;88.90
10538;DHT22;5317;49.048;8.468;2023-05-10T00:38:17;18.30;89.00
10538;DHT22;5317;49.048;8.468;2023-05-10T00:40:43;18.20;89.20
10538;DHT22;5317;49.048;8.468;2023-05-10T00:43:10;18.20;89.40
10538;DHT22;5317;49.048;8.468;2023-05-10T00:45:37;18.20;89.50
10538;DHT22;5317;49.048;8.468;2023-05-10T00:48:06;18.20;89.60
10538;DHT22;5317;49.048;8.468;2023-05-10T00:50:35;18.10;89.70
10538;DHT22;5317;49.048;8.468;2023-05-10T00:53:02;18.10;89.80
10538;DHT22;5317;49.048;8.468;2023-05-10T00:55:30;18.10;90.00
10538;DHT22;5317;49.048;8.468;2023-05-10T00:57:57;18.10;90.00
10538;DHT22;5317;49.048;8.468;2023-05-10T01:00:24;18.10;89.90
10538;DHT22;5317;49.048;8.468;2023-05-10T01:02:52;18.10;89.80
10538;DHT22;5317;49.048;8.468;2023-05-10T01:05:20;18.10;90.00
10538;DHT22;5317;49.048;8.468;2023-05-10T01:07:48;18.00;90.00
10538;DHT22;5317;49.048;8.468;2023-05-10T01:13:38;18.00;90.10
10538;DHT22;5317;49.048;8.468;2023-05-10T01:16:07;18.00;90.00
10538;DHT22;5317;49.048;8.468;2023-05-10T01:18:38;17.90;90.00
10538;DHT22;5317;49.048;8.468;2023-05-10T01:21:15;17.90;90.10
10538;DHT22;5317;49.048;8.468;2023-05-10T01:30:42;17.90;90.40
10538;DHT22;5317;49.048;8.468;2023-05-10T01:33:17;17.90;90.40
10538;DHT22;5317;49.048;8.468;2023-05-10T01:35:53;17.70;90.30
10538;DHT22;5317;49.048;8.468;2023-05-10T01:38:28;17.80;90.50
10538;DHT22;5317;49.048;8.468;2023-05-10T01:41:04;17.80;90.30
10538;DHT22;5317;49.048;8.468;2023-05-10T01:43:42;17.80;90.30
10538;DHT22;5317;49.048;8.468;2023-05-10T01:46:14;17.80;90.30
10538;DHT22;5317;49.048;8.468;2023-05-10T01:48:47;17.80;90.30
10538;DHT22;5317;49.048;8.468;2023-05-10T01:51:24;17.80;90.30
10538;DHT22;5317;49.048;8.468;2023-05-10T01:53:58;17.90;90.40
10538;DHT22;5317;49.048;8.468;2023-05-10T01:56:26;17.90;90.30
10538;DHT22;5317;49.048;8.468;2023-05-10T01:58:55;17.80;90.30
10538;DHT22;5317;49.048;8.468;2023-05-10T02:01:24;17.80;90.30
10538;DHT22;5317;49.048;8.468;2023-05-10T02:03:54;17.80;90.50
10538;DHT22;5317;49.048;8.468;2023-05-10T02:06:22;17.70;90.60
10538;DHT22;5317;49.048;8.468;2023-05-10T02:08:51;17.70;90.60
10538;DHT22;5317;49.048;8.468;2023-05-10T02:11:20;17.70;90.60
10538;DHT22;5317;49.048;8.468;2023-05-10T02:13:50;17.70;90.60
10538;DHT22;5317;49.048;8.468;2023-05-10T02:16:19;17.70;90.70
10538;DHT22;5317;49.048;8.468;2023-05-10T02:18:51;17.80;90.70
10538;DHT22;5317;49.048;8.468;2023-05-10T02:21:20;17.70;90.70
10538;DHT22;5317;49.048;8.468;2023-05-10T02:23:49;17.70;90.70
10538;DHT22;5317;49.048;8.468;2023-05-10T02:26:18;17.70;90.70
10538;DHT22;5317;49.048;8.468;2023-05-10T02:28:47;17.60;90.80
10538;DHT22;5317;49.048;8.468;2023-05-10T02:31:15;17.60;91.00
10538;DHT22;5317;49.048;8.468;2023-05-10T02:33:44;17.60;91.20
10538;DHT22;5317;49.048;8.468;2023-05-10T02:36:12;17.40;91.30
10538;DHT22;5317;49.048;8.468;2023-05-10T02:38:41;17.40;91.40
10538;DHT22;5317;49.048;8.468;2023-05-10T02:41:10;17.40;91.80
10538;DHT22;5317;49.048;8.468;2023-05-10T02:43:40;17.50;91.40
10538;DHT22;5317;49.048;8.468;2023-05-10T02:46:07;17.50;91.30
10538;DHT22;5317;49.048;8.468;2023-05-10T02:48:34;17.50;91.40
10538;DHT22;5317;49.048;8.468;2023-05-10T02:51:05;17.50;91.20
10538;DHT22;5317;49.048;8.468;2023-05-10T02:53:35;17.60;91.40
10538;DHT22;5317;49.048;8.468;2023-05-10T02:56:13;17.60;91.20
10538;DHT22;5317;49.048;8.468;2023-05-10T02:58:41;17.60;91.20
10538;DHT22;5317;49.048;8.468;2023-05-10T03:01:08;17.60;91.20
10538;DHT22;5317;49.048;8.468;2023-05-10T03:03:35;17.60;91.00
10538;DHT22;5317;49.048;8.468;2023-05-10T03:06:02;17.60;91.00
10538;DHT22;5317;49.048;8.468;2023-05-10T03:08:29;17.60;90.90
10538;DHT22;5317;49.048;8.468;2023-05-10T03:11:08;17.60;91.00
10538;DHT22;5317;49.048;8.468;2023-05-10T03:13:46;17.60;91.00
10538;DHT22;5317;49.048;8.468;2023-05-10T03:16:16;17.50;91.20
10538;DHT22;5317;49.048;8.468;2023-05-10T03:18:54;17.50;91.20
10538;DHT22;5317;49.048;8.468;2023-05-10T03:21:22;17.50;91.10
10538;DHT22;5317;49.048;8.468;2023-05-10T03:23:59;17.50;90.90
10538;DHT22;5317;49.048;8.468;2023-05-10T03:26:30;17.50;91.10
10538;DHT22;5317;49.048;8.468;2023-05-10T03:28:58;17.50;91.10
10538;DHT22;5317;49.048;8.468;2023-05-10T03:31:26;17.50;91.00
10538;DHT22;5317;49.048;8.468;2023-05-10T03:33:53;17.50;91.00
10538;DHT22;5317;49.048;8.468;2023-05-10T03:36:20;17.50;91.00
10538;DHT22;5317;49.048;8.468;2023-05-10T03:38:46;17.50;90.90
10538;DHT22;5317;49.048;8.468;2023-05-10T03:41:13;17.50;90.80
10538;DHT22;5317;49.048;8.468;2023-05-10T03:43:41;17.60;90.80
10538;DHT22;5317;49.048;8.468;2023-05-10T03:46:08;17.60;90.80
10538;DHT22;5317;49.048;8.468;2023-05-10T03:48:35;17.60;90.70
10538;DHT22;5317;49.048;8.468;2023-05-10T03:51:02;17.60;90.70
10538;DHT22;5317;49.048;8.468;2023-05-10T03:53:29;17.70;90.60
10538;DHT22;5317;49.048;8.468;2023-05-10T03:55:56;17.70;90.50
10538;DHT22;5317;49.048;8.468;2023-05-10T03:58:23;17.80;90.40
10538;DHT22;5317;49.048;8.468;2023-05-10T04:00:52;17.80;90.30
10538;DHT22;5317;49.048;8.468;2023-05-10T04:03:19;17.80;90.30
10538;DHT22;5317;49.048;8.468;2023-05-10T04:05:46;17.90;90.30
10538;DHT22;5317;49.048;8.468;2023-05-10T04:08:12;17.80;90.20
10538;DHT22;5317;49.048;8.468;2023-05-10T04:10:40;17.80;90.20
10538;DHT22;5317;49.048;8.468;2023-05-10T04:13:07;17.90;90.20
10538;DHT22;5317;49.048;8.468;2023-05-10T04:15:34;17.80;90.20
10538;DHT22;5317;49.048;8.468;2023-05-10T04:18:02;17.80;90.30
10538;DHT22;5317;49.048;8.468;2023-05-10T04:20:29;17.80;90.30
10538;DHT22;5317;49.048;8.468;2023-05-10T04:22:56;17.80;90.30
10538;DHT22;5317;49.048;8.468;2023-05-10T04:25:22;17.80;90.70
10538;DHT22;5317;49.048;8.468;2023-05-10T04:27:49;17.90;90.70
10538;DHT22;5317;49.048;8.468;2023-05-10T04:30:16;17.90;90.20
10538;DHT22;5317;49.048;8.468;2023-05-10T04:32:43;17.90;90.00
10538;DHT22;5317;49.048;8.468;2023-05-10T04:35:11;17.80;90.10
10538;DHT22;5317;49.048;8.468;2023-05-10T04:37:40;17.90;90.30
10538;DHT22;5317;49.048;8.468;2023-05-10T04:40:08;17.90;90.20
10538;DHT22;5317;49.048;8.468;2023-05-10T04:42:35;18.00;90.10
10538;DHT22;5317;49.048;8.468;2023-05-10T04:45:02;18.00;90.00
10538;DHT22;5317;49.048;8.468;2023-05-10T04:47:29;18.00;90.00
10538;DHT22;5317;49.048;8.468;2023-05-10T04:49:56;18.00;90.00
10538;DHT22;5317;49.048;8.468;2023-05-10T04:52:24;18.00;90.00
10538;DHT22;5317;49.048;8.468;2023-05-10T04:54:51;18.00;89.90
10538;DHT22;5317;49.048;8.468;2023-05-10T04:57:18;18.10;89.80
10538;DHT22;5317;49.048;8.468;2023-05-10T04:59:45;18.10;89.70
10538;DHT22;5317;49.048;8.468;2023-05-10T05:02:12;18.20;89.50
10538;DHT22;5317;49.048;8.468;2023-05-10T05:04:39;18.20;90.10
10538;DHT22;5317;49.048;8.468;2023-05-10T05:07:05;18.20;89.40
10538;DHT22;5317;49.048;8.468;2023-05-10T05:09:34;18.20;89.40
10538;DHT22;5317;49.048;8.468;2023-05-10T05:12:01;18.20;89.50
10538;DHT22;5317;49.048;8.468;2023-05-10T05:14:28;18.20;89.80
10538;DHT22;5317;49.048;8.468;2023-05-10T05:16:54;18.20;89.80
10538;DHT22;5317;49.048;8.468;2023-05-10T05:19:22;18.20;89.50
10538;DHT22;5317;49.048;8.468;2023-05-10T05:21:49;18.20;89.80
10538;DHT22;5317;49.048;8.468;2023-05-10T05:24:15;18.20;89.70
10538;DHT22;5317;49.048;8.468;2023-05-10T05:26:44;18.30;90.00
10538;DHT22;5317;49.048;8.468;2023-05-10T05:29:10;18.30;89.80
10538;DHT22;5317;49.048;8.468;2023-05-10T05:31:37;18.30;89.50
10538;DHT22;5317;49.048;8.468;2023-05-10T05:34:04;18.20;90.00
10538;DHT22;5317;49.048;8.468;2023-05-10T05:36:32;18.20;90.40
10538;DHT22;5317;49.048;8.468;2023-05-10T05:38:59;18.20;90.10
10538;DHT22;5317;49.048;8.468;2023-05-10T05:41:25;18.20;90.10
10538;DHT22;5317;49.048;8.468;2023-05-10T05:43:54;18.20;90.00
10538;DHT22;5317;49.048;8.468;2023-05-10T05:46:20;18.20;90.00
10538;DHT22;5317;49.048;8.468;2023-05-10T05:48:47;18.10;90.00
10538;DHT22;5317;49.048;8.468;2023-05-10T05:51:14;18.10;90.00
10538;DHT22;5317;49.048;8.468;2023-05-10T05:53:41;18.20;90.10
10538;DHT22;5317;49.048;8.468;2023-05-10T05:56:08;18.20;89.90
10538;DHT22;5317;49.048;8.468;2023-05-10T05:58:35;18.20;89.80
10538;DHT22;5317;49.048;8.468;2023-05-10T06:01:03;18.20;89.60
10538;DHT22;5317;49.048;8.468;2023-05-10T06:03:30;18.20;89.80
10538;DHT22;5317;49.048;8.468;2023-05-10T06:05:58;18.20;89.80
10538;DHT22;5317;49.048;8.468;2023-05-10T06:08:24;18.10;89.50
10538;DHT22;5317;49.048;8.468;2023-05-10T06:10:51;18.10;89.60
10538;DHT22;5317;49.048;8.468;2023-05-10T06:13:18;18.10;89.50
10538;DHT22;5317;49.048;8.468;2023-05-10T06:15:45;18.10;89.70
10538;DHT22;5317;49.048;8.468;2023-05-10T06:18:13;18.10;89.00
10538;DHT22;5317;49.048;8.468;2023-05-10T06:20:41;18.10;89.00
10538;DHT22;5317;49.048;8.468;2023-05-10T06:23:08;18.10;88.40
10538;DHT22;5317;49.048;8.468;2023-05-10T06:25:35;18.10;88.80
10538;DHT22;5317;49.048;8.468;2023-05-10T06:28:02;18.10;88.60
10538;DHT22;5317;49.048;8.468;2023-05-10T06:30:29;18.20;88.20
10538;DHT22;5317;49.048;8.468;2023-05-10T06:32:56;18.10;87.10
10538;DHT22;5317;49.048;8.468;2023-05-10T06:35:24;18.10;87.60
10538;DHT22;5317;49.048;8.468;2023-05-10T06:37:51;18.00;87.50
10538;DHT22;5317;49.048;8.468;2023-05-10T06:40:18;18.00;88.00
10538;DHT22;5317;49.048;8.468;2023-05-10T06:42:45;18.10;87.60
10538;DHT22;5317;49.048;8.468;2023-05-10T06:45:13;18.10;86.70
10538;DHT22;5317;49.048;8.468;2023-05-10T06:47:40;18.00;86.10
10538;DHT22;5317;49.048;8.468;2023-05-10T06:50:08;18.00;86.90
10538;DHT22;5317;49.048;8.468;2023-05-10T06:52:38;18.00;87.20
10538;DHT22;5317;49.048;8.468;2023-05-10T06:55:05;18.10;87.50
10538;DHT22;5317;49.048;8.468;2023-05-10T06:57:33;18.10;86.50
10538;DHT22;5317;49.048;8.468;2023-05-10T07:00:00;18.10;86.50
10538;DHT22;5317;49.048;8.468;2023-05-10T07:02:29;18.20;86.40
10538;DHT22;5317;49.048;8.468;2023-05-10T07:04:56;18.20;86.20
10538;DHT22;5317;49.048;8.468;2023-05-10T07:07:23;18.20;86.30
10538;DHT22;5317;49.048;8.468;2023-05-10T07:09:51;18.20;86.40
10538;DHT22;5317;49.048;8.468;2023-05-10T07:12:18;18.30;86.30
10538;DHT22;5317;49.048;8.468;2023-05-10T07:14:45;18.40;86.30
10538;DHT22;5317;49.048;8.468;2023-05-10T07:17:12;18.50;86.40
10538;DHT22;5317;49.048;8.468;2023-05-10T07:19:39;18.50;85.50
10538;DHT22;5317;49.048;8.468;2023-05-10T07:22:05;18.50;85.10
10538;DHT22;5317;49.048;8.468;2023-05-10T07:24:33;18.40;85.10
10538;DHT22;5317;49.048;8.468;2023-05-10T07:27:02;18.40;85.30
10538;DHT22;5317;49.048;8.468;2023-05-10T07:29:29;18.50;85.70
10538;DHT22;5317;49.048;8.468;2023-05-10T07:31:56;18.60;85.60
10538;DHT22;5317;49.048;8.468;2023-05-10T07:34:23;18.60;84.80
10538;DHT22;5317;49.048;8.468;2023-05-10T07:36:50;18.50;85.30
10538;DHT22;5317;49.048;8.468;2023-05-10T07:39:17;18.50;84.60
10538;DHT22;5317;49.048;8.468;2023-05-10T07:41:45;18.50;84.40
10538;DHT22;5317;49.048;8.468;2023-05-10T07:44:14;18.50;84.10
10538;DHT22;5317;49.048;8.468;2023-05-10T07:46:43;18.50;84.10
10538;DHT22;5317;49.048;8.468;2023-05-10T07:49:10;18.50;84.20
10538;DHT22;5317;49.048;8.468;2023-05-10T07:51:37;18.50;84.10
10538;DHT22;5317;49.048;8.468;2023-05-10T07:54:04;18.60;84.10
10538;DHT22;5317;49.048;8.468;2023-05-10T07:56:32;18.60;83.60
10538;DHT22;5317;49.048;8.468;2023-05-10T07:59:00;18.70;83.80
10538;DHT22;5317;49.048;8.468;2023-05-10T08:01:30;18.60;83.10
10538;DHT22;5317;49.048;8.468;2023-05-10T08:03:58;18.60;83.50
10538;DHT22;5317;49.048;8.468;2023-05-10T08:06:25;18.70;83.40
10538;DHT22;5317;49.048;8.468;2023-05-10T08:08:53;18.70;82.70
10538;DHT22;5317;49.048;8.468;2023-05-10T08:11:21;18.70;83.00
10538;DHT22;5317;49.048;8.468;2023-05-10T08:13:49;18.60;83.00
10538;DHT22;5317;49.048;8.468;2023-05-10T08:16:16;18.60;82.50
10538;DHT22;5317;49.048;8.468;2023-05-10T08:18:45;18.60;82.70
10538;DHT22;5317;49.048;8.468;2023-05-10T08:21:13;18.60;82.30
10538;DHT22;5317;49.048;8.468;2023-05-10T08:23:40;18.70;82.40
10538;DHT22;5317;49.048;8.468;2023-05-10T08:26:09;18.80;82.20
10538;DHT22;5317;49.048;8.468;2023-05-10T08:28:35;19.10;82.20
10538;DHT22;5317;49.048;8.468;2023-05-10T08:31:02;19.10;80.80
10538;DHT22;5317;49.048;8.468;2023-05-10T08:33:29;19.30;81.50
10538;DHT22;5317;49.048;8.468;2023-05-10T08:35:58;19.40;80.50
10538;DHT22;5317;49.048;8.468;2023-05-10T08:38:24;19.40;78.90
10538;DHT22;5317;49.048;8.468;2023-05-10T08:40:55;19.40;79.80
10538;DHT22;5317;49.048;8.468;2023-05-10T08:43:26;19.40;79.40
10538;DHT22;5317;49.048;8.468;2023-05-10T08:45:54;19.30;78.50
10538;DHT22;5317;49.048;8.468;2023-05-10T08:48:23;19.10;79.50
10538;DHT22;5317;49.048;8.468;2023-05-10T08:50:53;19.00;80.40
10538;DHT22;5317;49.048;8.468;2023-05-10T08:53:24;19.00;80.50
10538;DHT22;5317;49.048;8.468;2023-05-10T08:55:51;19.00;80.30
10538;DHT22;5317;49.048;8.468;2023-05-10T08:58:19;19.00;79.80
10538;DHT22;5317;49.048;8.468;2023-05-10T09:00:48;19.10;80.10
10538;DHT22;5317;49.048;8.468;2023-05-10T09:03:15;19.10;79.60
10538;DHT22;5317;49.048;8.468;2023-05-10T09:05:42;18.90;78.20
10538;DHT22;5317;49.048;8.468;2023-05-10T09:08:10;18.90;79.10
10538;DHT22;5317;49.048;8.468;2023-05-10T09:10:41;18.90;79.00
10538;DHT22;5317;49.048;8.468;2023-05-10T09:13:10;18.80;79.90
10538;DHT22;5317;49.048;8.468;2023-05-10T09:15:38;18.90;80.20
10538;DHT22;5317;49.048;8.468;2023-05-10T09:18:05;18.90;80.20
10538;DHT22;5317;49.048;8.468;2023-05-10T09:20:32;18.90;80.50
10538;DHT22;5317;49.048;8.468;2023-05-10T09:22:58;18.90;79.80
10538;DHT22;5317;49.048;8.468;2023-05-10T09:25:25;18.90;79.50
10538;DHT22;5317;49.048;8.468;2023-05-10T09:27:55;19.00;80.10
10538;DHT22;5317;49.048;8.468;2023-05-10T09:30:26;19.10;80.70
10538;DHT22;5317;49.048;8.468;2023-05-10T09:32:54;19.10;79.60
10538;DHT22;5317;49.048;8.468;2023-05-10T09:35:23;19.10;80.00
10538;DHT22;5317;49.048;8.468;2023-05-10T09:37:52;19.10;79.40
10538;DHT22;5317;49.048;8.468;2023-05-10T09:40:21;19.10;78.30
10538;DHT22;5317;49.048;8.468;2023-05-10T09:42:52;19.00;78.00
10538;DHT22;5317;49.048;8.468;2023-05-10T09:45:22;19.00;78.20
10538;DHT22;5317;49.048;8.468;2023-05-10T09:47:49;19.10;78.40
10538;DHT22;5317;49.048;8.468;2023-05-10T09:50:16;19.20;77.20
10538;DHT22;5317;49.048;8.468;2023-05-10T09:52:47;19.00;75.90
10538;DHT22;5317;49.048;8.468;2023-05-10T09:55:14;19.10;75.90
10538;DHT22;5317;49.048;8.468;2023-05-10T09:57:41;19.10;76.10
10538;DHT22;5317;49.048;8.468;2023-05-10T10:00:09;19.20;73.90
10538;DHT22;5317;49.048;8.468;2023-05-10T10:02:38;19.30;74.70
10538;DHT22;5317;49.048;8.468;2023-05-10T10:05:07;19.40;73.40
10538;DHT22;5317;49.048;8.468;2023-05-10T10:07:34;19.50;74.10
10538;DHT22;5317;49.048;8.468;2023-05-10T10:10:01;19.60;71.90
10538;DHT22;5317;49.048;8.468;2023-05-10T10:12:30;19.60;72.70
10538;DHT22;5317;49.048;8.468;2023-05-10T10:14:59;19.70;71.40
10538;DHT22;5317;49.048;8.468;2023-05-10T10:17:27;19.80;71.90
10538;DHT22;5317;49.048;8.468;2023-05-10T10:19:57;19.80;71.40
10538;DHT22;5317;49.048;8.468;2023-05-10T10:22:24;19.80;72.80
10538;DHT22;5317;49.048;8.468;2023-05-10T10:24:51;19.90;71.20
10538;DHT22;5317;49.048;8.468;2023-05-10T10:27:23;19.90;71.40
10538;DHT22;5317;49.048;8.468;2023-05-10T10:30:01;20.00;70.80
10538;DHT22;5317;49.048;8.468;2023-05-10T10:32:37;20.10;70.00
10538;DHT22;5317;49.048;8.468;2023-05-10T10:35:08;20.20;71.60
10538;DHT22;5317;49.048;8.468;2023-05-10T10:37:43;20.30;70.90
10538;DHT22;5317;49.048;8.468;2023-05-10T10:40:24;20.50;68.90
10538;DHT22;5317;49.048;8.468;2023-05-10T10:42:52;20.60;69.30
10538;DHT22;5317;49.048;8.468;2023-05-10T10:45:20;20.70;69.50
10538;DHT22;5317;49.048;8.468;2023-05-10T10:47:47;20.80;68.30
10538;DHT22;5317;49.048;8.468;2023-05-10T10:50:16;20.80;68.30
10538;DHT22;5317;49.048;8.468;2023-05-10T10:52:44;20.90;69.00
10538;DHT22;5317;49.048;8.468;2023-05-10T10:55:12;21.00;68.60
10538;DHT22;5317;49.048;8.468;2023-05-10T10:57:44;21.10;68.70
10538;DHT22;5317;49.048;8.468;2023-05-10T11:00:25;21.10;66.80
10538;DHT22;5317;49.048;8.468;2023-05-10T11:02:54;20.90;63.90
10538;DHT22;5317;49.048;8.468;2023-05-10T11:05:42;20.70;63.50
10538;DHT22;5317;49.048;8.468;2023-05-10T11:08:14;20.80;64.90
10538;DHT22;5317;49.048;8.468;2023-05-10T11:10:51;21.10;66.40
10538;DHT22;5317;49.048;8.468;2023-05-10T11:13:27;21.00;62.80
10538;DHT22;5317;49.048;8.468;2023-05-10T11:15:55;21.00;64.80
10538;DHT22;5317;49.048;8.468;2023-05-10T11:18:25;21.00;63.20
10538;DHT22;5317;49.048;8.468;2023-05-10T11:20:56;20.90;62.70
10538;DHT22;5317;49.048;8.468;2023-05-10T11:23:28;20.80;63.00
10538;DHT22;5317;49.048;8.468;2023-05-10T11:25:55;20.90;63.10
10538;DHT22;5317;49.048;8.468;2023-05-10T11:28:23;20.80;63.00
10538;DHT22;5317;49.048;8.468;2023-05-10T11:30:50;20.90;62.20
10538;DHT22;5317;49.048;8.468;2023-05-10T11:33:18;20.90;63.10
10538;DHT22;5317;49.048;8.468;2023-05-10T11:35:46;20.90;61.50
10538;DHT22;5317;49.048;8.468;2023-05-10T11:38:14;21.00;62.30
10538;DHT22;5317;49.048;8.468;2023-05-10T11:40:41;21.10;62.70
10538;DHT22;5317;49.048;8.468;2023-05-10T11:43:09;21.20;61.70
10538;DHT22;5317;49.048;8.468;2023-05-10T11:45:37;20.90;59.60
10538;DHT22;5317;49.048;8.468;2023-05-10T11:48:04;20.70;60.80
10538;DHT22;5317;49.048;8.468;2023-05-10T11:50:31;20.50;60.40
10538;DHT22;5317;49.048;8.468;2023-05-10T11:52:58;20.40;60.90
10538;DHT22;5317;49.048;8.468;2023-05-10T11:55:26;20.40;61.10
10538;DHT22;5317;49.048;8.468;2023-05-10T11:57:59;20.40;61.90
10538;DHT22;5317;49.048;8.468;2023-05-10T12:00:26;20.50;62.60
10538;DHT22;5317;49.048;8.468;2023-05-10T12:02:53;20.60;62.40
10538;DHT22;5317;49.048;8.468;2023-05-10T12:05:20;20.70;62.50
10538;DHT22;5317;49.048;8.468;2023-05-10T12:07:47;20.80;61.90
10538;DHT22;5317;49.048;8.468;2023-05-10T12:10:14;21.00;61.60
10538;DHT22;5317;49.048;8.468;2023-05-10T12:12:45;21.10;60.80
10538;DHT22;5317;49.048;8.468;2023-05-10T12:15:17;21.00;57.80
10538;DHT22;5317;49.048;8.468;2023-05-10T12:17:45;21.10;59.20
10538;DHT22;5317;49.048;8.468;2023-05-10T12:20:16;21.30;59.30
10538;DHT22;5317;49.048;8.468;2023-05-10T12:22:47;21.40;57.60
10538;DHT22;5317;49.048;8.468;2023-05-10T12:25:14;21.30;57.60
10538;DHT22;5317;49.048;8.468;2023-05-10T12:27:48;21.20;56.40
10538;DHT22;5317;49.048;8.468;2023-05-10T12:30:19;21.20;56.00
10538;DHT22;5317;49.048;8.468;2023-05-10T12:32:47;21.20;57.30
10538;DHT22;5317;49.048;8.468;2023-05-10T12:35:14;21.30;57.70
10538;DHT22;5317;49.048;8.468;2023-05-10T12:37:42;21.50;56.60
10538;DHT22;5317;49.048;8.468;2023-05-10T12:40:10;21.30;55.80
10538;DHT22;5317;49.048;8.468;2023-05-10T12:42:38;21.30;54.90
10538;DHT22;5317;49.048;8.468;2023-05-10T12:45:08;21.40;54.60
10538;DHT22;5317;49.048;8.468;2023-05-10T12:47:35;21.30;55.40
10538;DHT22;5317;49.048;8.468;2023-05-10T12:50:02;21.50;56.10
10538;DHT22;5317;49.048;8.468;2023-05-10T12:52:30;21.60;54.40
10538;DHT22;5317;49.048;8.468;2023-05-10T12:54:58;21.70;54.90
10538;DHT22;5317;49.048;8.468;2023-05-10T12:57:26;21.80;55.10
10538;DHT22;5317;49.048;8.468;2023-05-10T12:59:54;21.90;55.00
10538;DHT22;5317;49.048;8.468;2023-05-10T13:02:22;22.10;55.10
10538;DHT22;5317;49.048;8.468;2023-05-10T13:04:49;22.20;55.00
10538;DHT22;5317;49.048;8.468;2023-05-10T13:07:16;22.30;55.30
10538;DHT22;5317;49.048;8.468;2023-05-10T13:09:43;22.50;55.40
10538;DHT22;5317;49.048;8.468;2023-05-10T13:12:10;22.50;54.40
10538;DHT22;5317;49.048;8.468;2023-05-10T13:14:37;22.60;54.70
10538;DHT22;5317;49.048;8.468;2023-05-10T13:17:06;22.60;54.30
10538;DHT22;5317;49.048;8.468;2023-05-10T13:19:34;22.40;51.50
10538;DHT22;5317;49.048;8.468;2023-05-10T13:22:01;22.40;51.60
10538;DHT22;5317;49.048;8.468;2023-05-10T13:24:28;22.30;51.80
10538;DHT22;5317;49.048;8.468;2023-05-10T13:26:55;22.30;51.80
10538;DHT22;5317;49.048;8.468;2023-05-10T13:29:22;22.40;52.60
10538;DHT22;5317;49.048;8.468;2023-05-10T13:31:49;22.40;51.90
10538;DHT22;5317;49.048;8.468;2023-05-10T13:34:16;22.20;51.60
10538;DHT22;5317;49.048;8.468;2023-05-10T13:36:47;22.10;51.70
10538;DHT22;5317;49.048;8.468;2023-05-10T13:39:14;22.20;50.10
10538;DHT22;5317;49.048;8.468;2023-05-10T13:41:41;22.10;50.70
10538;DHT22;5317;49.048;8.468;2023-05-10T13:44:08;22.30;52.00
10538;DHT22;5317;49.048;8.468;2023-05-10T13:46:35;22.50;51.40
10538;DHT22;5317;49.048;8.468;2023-05-10T13:49:03;22.40;50.80
10538;DHT22;5317;49.048;8.468;2023-05-10T13:51:30;22.40;52.10
10538;DHT22;5317;49.048;8.468;2023-05-10T13:53:59;22.20;50.40
10538;DHT22;5317;49.048;8.468;2023-05-10T13:56:26;22.10;50.80
10538;DHT22;5317;49.048;8.468;2023-05-10T13:58:53;22.10;50.50
10538;DHT22;5317;49.048;8.468;2023-05-10T14:01:19;22.10;51.30
10538;DHT22;5317;49.048;8.468;2023-05-10T14:03:46;22.10;52.10
10538;DHT22;5317;49.048;8.468;2023-05-10T14:06:13;22.00;51.00
10538;DHT22;5317;49.048;8.468;2023-05-10T14:08:40;21.90;52.20
10538;DHT22;5317;49.048;8.468;2023-05-10T14:11:08;22.00;52.50
10538;DHT22;5317;49.048;8.468;2023-05-10T14:13:35;22.00;52.70
10538;DHT22;5317;49.048;8.468;2023-05-10T14:16:02;22.00;52.60
10538;DHT22;5317;49.048;8.468;2023-05-10T14:18:29;22.00;52.70
10538;DHT22;5317;49.048;8.468;2023-05-10T14:20:56;22.10;52.70
10538;DHT22;5317;49.048;8.468;2023-05-10T14:23:23;22.00;52.20
10538;DHT22;5317;49.048;8.468;2023-05-10T14:25:51;22.00;51.40
10538;DHT22;5317;49.048;8.468;2023-05-10T14:28:19;22.00;51.80
10538;DHT22;5317;49.048;8.468;2023-05-10T14:30:46;22.00;52.00
10538;DHT22;5317;49.048;8.468;2023-05-10T14:33:13;22.00;52.90
10538;DHT22;5317;49.048;8.468;2023-05-10T14:35:41;22.10;52.70
10538;DHT22;5317;49.048;8.468;2023-05-10T14:38:08;22.00;51.80
10538;DHT22;5317;49.048;8.468;2023-05-10T14:40:36;22.10;52.30
10538;DHT22;5317;49.048;8.468;2023-05-10T14:43:03;22.20;52.10
10538;DHT22;5317;49.048;8.468;2023-05-10T14:45:31;22.40;52.50
10538;DHT22;5317;49.048;8.468;2023-05-10T14:47:59;22.40;51.40
10538;DHT22;5317;49.048;8.468;2023-05-10T14:50:30;22.50;51.80
10538;DHT22;5317;49.048;8.468;2023-05-10T14:52:57;22.70;51.80
10538;DHT22;5317;49.048;8.468;2023-05-10T14:55:24;22.80;52.20
10538;DHT22;5317;49.048;8.468;2023-05-10T14:57:51;22.90;52.50
10538;DHT22;5317;49.048;8.468;2023-05-10T15:00:18;23.00;52.00
10538;DHT22;5317;49.048;8.468;2023-05-10T15:02:47;22.90;50.80
10538;DHT22;5317;49.048;8.468;2023-05-10T15:05:15;22.80;51.40
10538;DHT22;5317;49.048;8.468;2023-05-10T15:07:42;22.90;51.90
10538;DHT22;5317;49.048;8.468;2023-05-10T15:10:10;22.80;50.90
10538;DHT22;5317;49.048;8.468;2023-05-10T15:12:38;22.80;51.60
10538;DHT22;5317;49.048;8.468;2023-05-10T15:15:06;22.80;52.00
10538;DHT22;5317;49.048;8.468;2023-05-10T15:17:33;22.90;52.10
10538;DHT22;5317;49.048;8.468;2023-05-10T15:20:02;22.90;52.90
10538;DHT22;5317;49.048;8.468;2023-05-10T15:22:30;22.80;52.70
10538;DHT22;5317;49.048;8.468;2023-05-10T15:24:57;22.70;52.00
10538;DHT22;5317;49.048;8.468;2023-05-10T15:27:24;22.40;51.80
10538;DHT22;5317;49.048;8.468;2023-05-10T15:29:51;22.30;51.90
10538;DHT22;5317;49.048;8.468;2023-05-10T15:32:18;22.20;52.30
10538;DHT22;5317;49.048;8.468;2023-05-10T15:34:45;22.00;52.90
10538;DHT22;5317;49.048;8.468;2023-05-10T15:37:14;22.20;53.40
10538;DHT22;5317;49.048;8.468;2023-05-10T15:39:40;22.20;52.90
10538;DHT22;5317;49.048;8.468;2023-05-10T15:42:07;22.20;52.60
10538;DHT22;5317;49.048;8.468;2023-05-10T15:44:34;22.20;52.60
10538;DHT22;5317;49.048;8.468;2023-05-10T15:47:04;22.10;53.40
10538;DHT22;5317;49.048;8.468;2023-05-10T15:49:32;22.10;53.50
10538;DHT22;5317;49.048;8.468;2023-05-10T15:51:59;21.90;52.80
10538;DHT22;5317;49.048;8.468;2023-05-10T15:54:27;21.80;53.10
10538;DHT22;5317;49.048;8.468;2023-05-10T15:56:54;21.80;53.90
10538;DHT22;5317;49.048;8.468;2023-05-10T15:59:21;21.80;53.40
10538;DHT22;5317;49.048;8.468;2023-05-10T16:01:48;21.70;53.50